Time;durP1;ratioP1;P1;durP2;ratioP2;P2;SDS_P1;SDS_P2;PMS_P1;PMS_P2;Temp;Humidity;BMP_temperature;BMP_pressure;BME280_temperature;BME280_humidity;BME280_pressure;Samples;Min_cycle;Max_cycle;Signal;HPM_P1;HPM_P2
2020/12/21 00:00:08;;;;;;;9.23;6.13;;;;;;;6.62;82.70;97175.81;4870206;29;20046;-75
2020/12/21 00:02:34;;;;;;;8.63;6.18;;;;;;;6.63;82.71;97174.03;4870940;29;20041;-76
2020/12/21 00:05:00;;;;;;;7.38;5.72;;;;;;;6.62;82.66;97170.59;4874733;29;20057;-74
2020/12/21 00:07:26;;;;;;;6.70;5.47;;;;;;;6.63;82.66;97174.03;4876806;29;20040;-74
2020/12/21 00:09:53;;;;;;;7.97;6.35;;;;;;;6.63;82.75;97177.44;4872887;29;20040;-74
2020/12/21 00:12:19;;;;;;;8.23;5.93;;;;;;;6.61;82.82;97174.19;4873933;29;20393;-74
2020/12/21 00:14:45;;;;;;;8.27;6.03;;;;;;;6.62;82.85;97172.41;4870004;29;20479;-74
2020/12/21 00:17:11;;;;;;;9.57;6.32;;;;;;;6.62;82.74;97170.59;4873960;29;20044;-75
2020/12/21 00:19:37;;;;;;;9.88;6.63;;;;;;;6.63;82.87;97176.63;4867847;29;20049;-75
2020/12/21 00:22:03;;;;;;;7.18;5.70;;;;;;;6.63;82.84;97174.03;4857388;29;20047;-74
2020/12/21 00:24:29;;;;;;;6.75;5.28;;;;;;;6.61;82.88;97174.19;4873090;29;20041;-74
2020/12/21 00:26:56;;;;;;;8.13;5.28;;;;;;;6.62;82.92;97170.59;4877486;29;20068;-74
2020/12/21 00:29:22;;;;;;;5.15;4.40;;;;;;;6.60;82.92;97172.56;4873765;29;20049;-74
2020/12/21 00:31:48;;;;;;;6.85;5.10;;;;;;;6.62;82.91;97169.81;4868240;29;20057;-74
2020/12/21 00:34:15;;;;;;;5.90;4.50;;;;;;;6.59;82.80;97168.34;4873953;29;20064;-75
2020/12/21 00:36:44;;;;;;;7.63;5.68;;;;;;;6.58;83.00;97176.34;4858433;29;20049;-75
2020/12/21 00:39:11;;;;;;;5.97;4.70;;;;;;;6.57;82.81;97174.72;4873157;29;20060;-74
2020/12/21 00:41:38;;;;;;;5.57;4.32;;;;;;;6.55;82.99;97180.13;4871559;29;20054;-75
2020/12/21 00:44:05;;;;;;;5.55;4.35;;;;;;;6.53;82.96;97184.69;4873362;29;20056;-74
2020/12/21 00:46:32;;;;;;;5.47;4.50;;;;;;;6.52;83.00;97184.88;4869466;29;20402;-75
2020/12/21 00:49:00;;;;;;;5.43;4.28;;;;;;;6.52;83.01;97180.44;4869482;29;20045;-74
2020/12/21 00:51:26;;;;;;;6.80;5.15;;;;;;;6.50;82.99;97178.00;4877788;29;20410;-74
2020/12/21 00:53:53;;;;;;;6.88;4.93;;;;;;;6.48;82.91;97179.19;4869393;29;20517;-75
2020/12/21 00:56:21;;;;;;;6.95;4.43;;;;;;;6.48;82.87;97176.56;4878196;29;20041;-74
2020/12/21 00:58:47;;;;;;;5.63;4.20;;;;;;;6.44;82.83;97170.88;4865975;29;20044;-75
2020/12/21 01:01:29;;;;;;;5.60;4.28;;;;;;;6.41;82.73;97173.06;4868069;29;20048;-74
2020/12/21 01:04:21;;;;;;;6.15;4.13;;;;;;;6.38;82.69;97173.38;4871423;29;20044;-75
2020/12/21 01:07:21;;;;;;;5.18;4.22;;;;;;;6.32;82.55;97176.69;4873320;29;20474;-74
2020/12/21 01:10:13;;;;;;;5.75;3.90;;;;;;;6.25;82.67;97179.97;4866744;29;20036;-74
2020/12/21 01:12:45;;;;;;;7.10;4.57;;;;;;;6.22;82.63;97188.13;4874275;29;20042;-74
2020/12/21 01:15:16;;;;;;;7.20;4.93;;;;;;;6.20;82.91;97189.28;4870188;29;20410;-74
2020/12/21 01:17:51;;;;;;;8.15;6.00;;;;;;;6.17;82.72;97187.03;4875520;29;20059;-75
2020/12/21 01:20:23;;;;;;;6.90;5.47;;;;;;;6.13;82.58;97185.75;4853275;29;20037;-74
2020/12/21 01:22:59;;;;;;;7.15;5.05;;;;;;;6.08;82.55;97189.66;4866741;29;20049;-74
2020/12/21 01:25:34;;;;;;;11.73;6.05;;;;;;;6.02;82.45;97184.34;4873562;29;20494;-74
2020/12/21 01:28:13;;;;;;;6.68;4.80;;;;;;;5.96;82.05;97192.81;4870594;29;20418;-74
2020/12/21 01:30:59;;;;;;;8.50;4.90;;;;;;;5.89;81.99;97190.06;4872103;29;20045;-76
2020/12/21 01:33:44;;;;;;;7.05;4.10;;;;;;;5.82;82.16;97192.53;4867472;29;20056;-75
2020/12/21 01:36:26;;;;;;;6.90;4.95;;;;;;;5.80;82.30;97191.09;4871716;29;20048;-74
2020/12/21 01:39:09;;;;;;;7.85;5.35;;;;;;;5.78;82.22;97190.44;4868638;29;20060;-74
2020/12/21 01:41:45;;;;;;;9.18;6.22;;;;;;;5.76;82.42;97198.41;4848114;29;20056;-75
2020/12/21 01:44:18;;;;;;;7.57;5.40;;;;;;;5.74;82.55;97189.16;4853268;29;20033;-74
2020/12/21 01:46:50;;;;;;;8.88;6.00;;;;;;;5.73;82.71;97190.13;4877162;29;20060;-74
2020/12/21 01:49:22;;;;;;;9.27;6.90;;;;;;;5.73;82.82;97198.72;4871581;29;20064;-74
2020/12/21 01:51:54;;;;;;;11.15;7.10;;;;;;;5.74;83.12;97200.38;4859064;29;20049;-74
2020/12/21 01:54:21;;;;;;;14.05;8.68;;;;;;;5.74;83.19;97186.56;4879987;29;20049;-74
2020/12/21 01:56:48;;;;;;;12.90;8.93;;;;;;;5.76;83.14;97190.59;4888729;29;20059;-74
2020/12/21 01:59:14;;;;;;;14.27;8.50;;;;;;;5.78;83.31;97193.06;4857858;29;20069;-74
2020/12/21 02:01:41;;;;;;;14.52;9.23;;;;;;;5.80;83.22;97185.88;4870081;29;20050;-75
2020/12/21 02:04:07;;;;;;;11.45;7.90;;;;;;;5.80;83.11;97189.28;4873229;29;20405;-75
2020/12/21 02:06:34;;;;;;;12.23;8.48;;;;;;;5.82;82.99;97194.34;4873914;29;20053;-74
2020/12/21 02:09:00;;;;;;;14.38;8.13;;;;;;;5.81;83.08;97193.50;4865837;29;20037;-74
2020/12/21 02:11:26;;;;;;;9.65;7.45;;;;;;;5.79;82.96;97190.25;4873551;29;20041;-74
2020/12/21 02:13:52;;;;;;;9.80;7.35;;;;;;;5.78;82.93;97188.66;4873787;29;20056;-74
2020/12/21 02:16:18;;;;;;;10.25;7.35;;;;;;;5.75;82.79;97188.97;4864011;29;20049;-74
2020/12/21 02:18:45;;;;;;;10.30;7.57;;;;;;;5.72;82.70;97176.31;4870530;29;20038;-75
2020/12/21 02:21:11;;;;;;;11.23;7.18;;;;;;;5.68;82.55;97183.63;4875155;29;20065;-75
2020/12/21 02:23:37;;;;;;;8.05;6.53;;;;;;;5.65;82.55;97185.78;4853420;29;20466;-74
2020/12/21 02:26:03;;;;;;;9.25;6.80;;;;;;;5.61;82.64;97179.28;4867425;29;20049;-74
2020/12/21 02:28:30;;;;;;;9.10;6.63;;;;;;;5.58;82.28;97179.59;4869922;29;20068;-74
2020/12/21 02:30:56;;;;;;;9.55;6.15;;;;;;;5.53;82.37;97181.91;4857252;29;20513;-74
2020/12/21 02:33:22;;;;;;;9.05;7.00;;;;;;;5.48;82.16;97172.81;4871700;29;20045;-76
2020/12/21 02:35:48;;;;;;;8.30;6.50;;;;;;;5.44;81.91;97176.72;4850115;29;20048;-74
2020/12/21 02:38:14;;;;;;;8.23;6.50;;;;;;;5.37;81.91;97174.97;4872558;29;20037;-74
2020/12/21 02:40:41;;;;;;;9.18;5.85;;;;;;;5.32;81.84;97169.47;4871229;29;20040;-74
2020/12/21 02:43:07;;;;;;;7.95;5.88;;;;;;;5.24;81.72;97173.69;4868626;29;20061;-74
2020/12/21 02:45:33;;;;;;;7.53;6.18;;;;;;;5.18;81.78;97165.75;4856021;29;20049;-75
2020/12/21 02:47:59;;;;;;;8.98;6.65;;;;;;;5.15;81.85;97166.88;4873879;29;20037;-75
2020/12/21 02:50:26;;;;;;;8.27;6.28;;;;;;;5.12;81.91;97182.00;4869388;29;20406;-75
2020/12/21 02:52:52;;;;;;;9.48;7.05;;;;;;;5.07;81.86;97169.50;4865583;29;20061;-74
2020/12/21 02:55:18;;;;;;;13.52;7.43;;;;;;;5.04;81.87;97165.44;4867865;29;20056;-74
2020/12/21 02:57:44;;;;;;;8.38;6.60;;;;;;;5.01;81.62;97168.34;4875070;29;20048;-74
2020/12/21 03:00:11;;;;;;;10.73;6.47;;;;;;;4.97;81.69;97163.66;4872223;29;20052;-74
2020/12/21 03:02:37;;;;;;;8.05;6.70;;;;;;;4.90;81.40;97166.09;4865738;29;20057;-74
2020/12/21 03:05:03;;;;;;;11.15;6.53;;;;;;;4.86;81.39;97167.41;4869264;29;20064;-75
2020/12/21 03:07:29;;;;;;;9.20;6.70;;;;;;;4.81;81.34;97170.50;4859187;29;20414;-74
2020/12/21 03:09:56;;;;;;;8.80;6.93;;;;;;;4.79;81.47;97176.84;4865964;29;20384;-74
2020/12/21 03:12:22;;;;;;;8.75;6.97;;;;;;;4.74;81.17;97171.31;4876758;29;20045;-74
2020/12/21 03:14:48;;;;;;;10.20;6.97;;;;;;;4.71;81.17;97169.06;4865184;29;20052;-74
2020/12/21 03:17:14;;;;;;;8.80;6.93;;;;;;;4.65;81.24;97166.13;4851197;29;20037;-74
2020/12/21 03:19:40;;;;;;;10.90;6.97;;;;;;;4.61;81.47;97166.59;4866373;29;20053;-74
2020/12/21 03:22:06;;;;;;;8.10;6.60;;;;;;;4.58;81.15;97166.94;4870953;29;20033;-74
2020/12/21 03:24:33;;;;;;;9.15;6.70;;;;;;;4.54;81.18;97165.63;4873047;29;20044;-75
2020/12/21 03:26:59;;;;;;;7.40;6.30;;;;;;;4.49;81.14;97171.28;4876265;29;20046;-74
2020/12/21 03:29:25;;;;;;;10.65;7.05;;;;;;;4.50;81.25;97170.34;4871027;29;20478;-74
2020/12/21 03:31:52;;;;;;;9.95;6.45;;;;;;;4.48;81.14;97167.91;4871951;29;20053;-74
2020/12/21 03:34:18;;;;;;;12.73;7.75;;;;;;;4.47;81.25;97165.44;4871900;29;20041;-74
2020/12/21 03:36:44;;;;;;;10.25;6.60;;;;;;;4.43;81.04;97159.78;4865430;29;20405;-74
2020/12/21 03:39:10;;;;;;;11.02;7.40;;;;;;;4.43;81.18;97164.16;4872188;29;20475;-74
2020/12/21 03:41:36;;;;;;;9.70;7.10;;;;;;;4.41;81.34;97166.94;4868777;29;20064;-74
2020/12/21 03:44:03;;;;;;;10.75;7.38;;;;;;;4.41;81.39;97166.09;4871019;29;20049;-74
2020/12/21 03:46:29;;;;;;;10.75;8.00;;;;;;;4.41;81.49;97155.69;4872987;29;20044;-74
2020/12/21 03:48:55;;;;;;;10.82;7.53;;;;;;;4.40;81.53;97154.91;4873531;29;20061;-74
2020/12/21 03:51:21;;;;;;;9.60;7.25;;;;;;;4.44;81.40;97158.00;4866018;29;20041;-74
2020/12/21 03:53:47;;;;;;;10.57;7.10;;;;;;;4.43;81.36;97157.19;4869761;29;20049;-75
2020/12/21 03:56:14;;;;;;;8.52;7.22;;;;;;;4.43;81.26;97154.59;4871500;29;20402;-74
2020/12/21 03:58:40;;;;;;;11.20;7.82;;;;;;;4.41;81.26;97143.56;4869511;29;20410;-74
2020/12/21 04:01:06;;;;;;;9.43;6.63;;;;;;;4.40;81.28;97146.31;4869270;29;20402;-74
2020/12/21 04:03:32;;;;;;;11.15;7.03;;;;;;;4.39;80.91;97142.91;4869489;29;20364;-74
2020/12/21 04:05:58;;;;;;;11.13;7.50;;;;;;;4.36;81.04;97150.19;4858414;29;20045;-75
2020/12/21 04:08:24;;;;;;;12.70;7.38;;;;;;;4.33;80.81;97151.34;4863970;29;20049;-75
2020/12/21 04:10:50;;;;;;;10.52;7.03;;;;;;;4.29;80.96;97147.44;4869565;29;20057;-74
2020/12/21 04:13:17;;;;;;;13.45;7.45;;;;;;;4.27;80.83;97132.00;4853221;29;20061;-74
2020/12/21 04:15:43;;;;;;;11.40;7.30;;;;;;;4.23;81.09;97130.72;4861728;29;20041;-74
2020/12/21 04:18:10;;;;;;;12.38;7.63;;;;;;;4.22;81.03;97144.66;4876137;29;20044;-75
2020/12/21 04:20:37;;;;;;;10.07;6.80;;;;;;;4.20;80.86;97146.63;4870910;29;20053;-74
2020/12/21 04:23:03;;;;;;;10.48;7.32;;;;;;;4.19;80.77;97149.38;4873763;29;20053;-75
2020/12/21 04:25:29;;;;;;;9.32;7.28;;;;;;;4.17;80.82;97146.13;4856072;29;20033;-74
2020/12/21 04:27:56;;;;;;;16.63;9.13;;;;;;;4.15;81.23;97141.06;4867078;29;20065;-75
2020/12/21 04:30:22;;;;;;;10.60;7.75;;;;;;;4.15;81.07;97143.66;4872509;29;20553;-74
2020/12/21 04:32:48;;;;;;;10.95;8.05;;;;;;;4.14;81.20;97142.06;4859418;29;20037;-74
2020/12/21 04:35:14;;;;;;;11.88;8.68;;;;;;;4.13;80.95;97131.84;4851795;29;20045;-74
2020/12/21 04:37:41;;;;;;;9.50;7.35;;;;;;;4.13;81.10;97137.03;4891231;29;20045;-74
2020/12/21 04:40:07;;;;;;;11.25;8.07;;;;;;;4.10;81.08;97134.75;4885793;29;20037;-74
2020/12/21 04:42:48;;;;;;;12.75;7.72;;;;;;;4.09;81.14;97131.31;4873252;29;20512;-75
2020/12/21 04:45:16;;;;;;;12.75;7.68;;;;;;;4.06;80.96;97123.88;4869025;29;20430;-75
2020/12/21 04:47:43;;;;;;;17.23;10.50;;;;;;;4.09;81.15;97130.53;4873727;29;20406;-74
2020/12/21 04:50:12;;;;;;;17.25;11.88;;;;;;;4.10;81.26;97132.97;4871423;29;20060;-74
2020/12/21 04:52:46;;;;;;;17.35;11.60;;;;;;;4.14;81.59;97126.47;4871264;29;20497;-75
2020/12/21 04:55:16;;;;;;;17.83;11.40;;;;;;;4.16;81.80;97129.72;4868787;29;20053;-74
2020/12/21 04:57:56;;;;;;;19.08;11.18;;;;;;;4.19;82.00;97119.00;4872158;29;20050;-75
2020/12/21 05:00:23;;;;;;;15.15;10.25;;;;;;;4.20;81.91;97123.25;4873345;29;20037;-73
2020/12/21 05:02:49;;;;;;;13.57;10.25;;;;;;;4.21;81.59;97124.06;4876254;29;21252;-73
2020/12/21 05:05:35;;;;;;;13.23;9.63;;;;;;;4.22;82.23;97116.13;4855984;29;20045;-75
2020/12/21 05:08:24;;;;;;;13.60;9.40;;;;;;;4.23;83.03;97117.72;4870689;29;20339;-75
2020/12/21 05:11:01;;;;;;;18.17;10.40;;;;;;;4.27;82.64;97129.41;4865069;29;20070;-75
2020/12/21 05:13:29;;;;;;;13.48;10.07;;;;;;;4.30;82.08;97122.28;4875516;29;20474;-75
2020/12/21 05:15:56;;;;;;;14.30;10.20;;;;;;;4.33;82.49;97116.78;4860467;29;20478;-75
2020/12/21 05:18:31;;;;;;;16.98;10.20;;;;;;;4.35;82.72;97117.44;4871061;29;20426;-75
2020/12/21 05:20:57;;;;;;;;;;;;;;;4.36;83.71;97122.44;4872593;29;20044;-75
2020/12/21 05:23:24;;;;;;;14.00;9.85;;;;;;;4.35;82.44;97110.44;4874563;29;19912;-75
2020/12/21 05:25:58;;;;;;;18.17;10.50;;;;;;;4.36;82.59;97111.25;4875662;29;20679;-75
2020/12/21 05:28:26;;;;;;;;;;;;;;;4.35;83.54;97113.03;4874075;29;20049;-76
2020/12/21 05:30:57;;;;;;;15.05;10.45;;;;;;;4.35;82.29;97114.84;4872904;29;19911;-75
2020/12/21 05:33:24;;;;;;;13.85;9.82;;;;;;;4.34;82.07;97114.00;4867517;29;20045;-75
2020/12/21 05:35:50;;;;;;;16.65;10.27;;;;;;;4.33;82.13;97117.56;4868507;29;20041;-75
2020/12/21 05:38:27;;;;;;;14.77;9.68;;;;;;;4.32;82.43;97121.13;4872941;29;20045;-74
2020/12/21 05:41:07;;;;;;;13.75;9.27;;;;;;;4.31;82.18;97116.94;4853186;29;20037;-75
2020/12/21 05:43:33;;;;;;;15.85;11.02;;;;;;;4.30;82.26;97123.06;4871236;29;20064;-74
2020/12/21 05:46:01;;;;;;;18.30;10.38;;;;;;;4.31;82.70;97124.72;4866339;29;20403;-75
2020/12/21 05:48:31;;;;;;;14.57;9.93;;;;;;;4.32;82.74;97130.72;4868130;29;20049;-74
2020/12/21 05:51:00;;;;;;;14.80;9.65;;;;;;;4.35;82.78;97141.59;4876538;29;20029;-74
2020/12/21 05:53:33;;;;;;;18.17;10.40;;;;;;;4.37;83.04;97146.63;4874316;29;20474;-74
2020/12/21 05:56:01;;;;;;;17.67;11.32;;;;;;;4.40;82.98;97159.28;4870332;29;20119;-74
2020/12/21 05:58:32;;;;;;;15.93;10.32;;;;;;;4.43;83.24;97156.34;4866105;29;20044;-74
2020/12/21 06:01:05;;;;;;;18.65;11.82;;;;;;;4.46;83.33;97156.84;4876315;29;20052;-74
2020/12/21 06:03:42;;;;;;;16.20;10.88;;;;;;;4.49;83.17;97160.91;4869791;29;20402;-74
2020/12/21 06:06:13;;;;;;;19.02;11.60;;;;;;;4.51;83.26;97150.38;4873527;29;20466;-74
2020/12/21 06:08:40;;;;;;;18.65;12.10;;;;;;;4.51;83.44;97150.38;4874926;29;20041;-75
2020/12/21 06:11:36;;;;;;;21.27;12.85;;;;;;;4.49;83.42;97147.91;4869691;29;20067;-75
2020/12/21 06:14:17;;;;;;;18.63;11.60;;;;;;;4.46;83.46;97161.25;4864152;29;20057;-74
2020/12/21 06:16:43;;;;;;;18.30;11.77;;;;;;;4.43;82.94;97158.94;4870463;29;20494;-74
2020/12/21 06:19:22;;;;;;;17.23;10.18;;;;;;;4.38;82.75;97158.63;4872571;29;20041;-74
2020/12/21 06:21:53;;;;;;;18.02;11.02;;;;;;;4.38;83.00;97143.06;4868946;29;20048;-74
2020/12/21 06:24:24;;;;;;;17.65;11.73;;;;;;;4.30;82.88;97130.88;4866134;29;20052;-74
2020/12/21 06:26:52;;;;;;;18.38;11.70;;;;;;;4.26;83.12;97132.16;4869635;29;20056;-74
2020/12/21 06:29:20;;;;;;;17.42;11.93;;;;;;;4.24;83.07;97127.16;4869666;29;20037;-74
2020/12/21 06:31:49;;;;;;;21.35;12.57;;;;;;;4.24;83.24;97121.97;4872354;29;20050;-74
2020/12/21 06:34:18;;;;;;;16.48;11.80;;;;;;;4.24;83.38;97118.53;4838317;29;20034;-75
2020/12/21 06:36:46;;;;;;;16.27;11.52;;;;;;;4.23;83.54;97122.09;4870130;29;20430;-75
2020/12/21 06:39:23;;;;;;;21.80;11.88;;;;;;;4.22;84.23;97117.88;4873714;29;20359;-75
2020/12/21 06:42:02;;;;;;;15.90;10.15;;;;;;;4.21;84.33;97116.28;4857472;29;20060;-74
2020/12/21 06:44:29;;;;;;;15.77;10.70;;;;;;;4.21;84.16;97122.25;4867247;29;20067;-74
2020/12/21 06:46:57;;;;;;;15.88;10.77;;;;;;;4.26;84.13;97126.97;4866796;29;20226;-74
2020/12/21 06:49:23;;;;;;;16.70;10.95;;;;;;;4.29;83.93;97118.06;4874937;29;20045;-74
2020/12/21 06:51:50;;;;;;;16.15;10.65;;;;;;;4.29;84.00;97116.28;4861296;29;20501;-74
2020/12/21 06:54:17;;;;;;;15.85;9.40;;;;;;;4.30;83.86;97117.88;4870410;29;20060;-74
2020/12/21 06:56:48;;;;;;;16.08;10.52;;;;;;;4.32;84.02;97112.53;4873531;29;20049;-74
2020/12/21 06:59:18;;;;;;;15.40;9.70;;;;;;;4.35;84.16;97112.22;4870970;29;20041;-75
2020/12/21 07:01:46;;;;;;;16.15;10.40;;;;;;;4.37;84.12;97102.50;4867232;29;20037;-75
2020/12/21 07:04:16;;;;;;;17.38;11.00;;;;;;;4.39;84.16;97096.16;4873201;29;20049;-76
2020/12/21 07:06:43;;;;;;;25.77;15.65;;;;;;;4.40;84.11;97094.38;4874413;29;20044;-74
2020/12/21 07:09:12;;;;;;;17.80;11.20;;;;;;;4.40;84.09;97095.16;4853127;29;20045;-75
2020/12/21 07:11:42;;;;;;;16.23;10.10;;;;;;;4.41;83.99;97090.78;4863189;29;20060;-74
2020/12/21 07:14:12;;;;;;;15.90;10.27;;;;;;;4.42;84.24;97088.03;4883031;29;20049;-74
2020/12/21 07:16:39;;;;;;;19.77;12.60;;;;;;;4.41;84.31;97085.59;4878167;29;20040;-74
2020/12/21 07:19:05;;;;;;;21.13;10.75;;;;;;;4.41;84.18;97086.41;4873725;29;20034;-75
2020/12/21 07:21:31;;;;;;;17.50;9.95;;;;;;;4.40;84.20;97083.97;4871997;29;20044;-74
2020/12/21 07:23:58;;;;;;;19.30;10.50;;;;;;;4.41;84.06;97083.00;4865164;29;20398;-74
2020/12/21 07:26:26;;;;;;;18.13;10.98;;;;;;;4.41;84.12;97083.81;4871151;29;20045;-73
2020/12/21 07:28:53;;;;;;;15.90;10.55;;;;;;;4.41;84.10;97080.41;4869297;29;20481;-74
2020/12/21 07:31:20;;;;;;;20.30;11.20;;;;;;;4.40;83.97;97079.59;4856647;29;20040;-74
2020/12/21 07:34:00;;;;;;;21.17;11.50;;;;;;;4.39;84.06;97088.38;4869275;29;20462;-73
2020/12/21 07:36:29;;;;;;;23.35;11.30;;;;;;;4.38;83.92;97089.31;4867512;29;20053;-73
2020/12/21 07:39:11;;;;;;;24.08;11.20;;;;;;;4.38;83.83;97104.09;4875573;29;20041;-73
2020/12/21 07:41:40;;;;;;;18.02;10.57;;;;;;;4.37;83.68;97103.31;4868300;29;20064;-74
2020/12/21 07:44:11;;;;;;;17.10;11.80;;;;;;;4.36;83.94;97106.06;4868011;29;20064;-73
2020/12/21 07:46:42;;;;;;;17.95;11.32;;;;;;;4.34;83.88;97108.00;4867990;29;20046;-73
2020/12/21 07:49:10;;;;;;;20.33;10.70;;;;;;;4.31;83.65;97103.16;4853309;29;20034;-73
2020/12/21 07:51:41;;;;;;;19.10;10.25;;;;;;;4.27;83.59;97102.66;4870984;29;20049;-73
2020/12/21 07:54:07;;;;;;;17.35;9.88;;;;;;;4.24;83.57;97101.19;4875619;29;20417;-73
2020/12/21 07:56:34;;;;;;;15.73;9.60;;;;;;;4.24;83.59;97097.75;4869582;29;20089;-73
2020/12/21 07:59:11;;;;;;;15.35;9.48;;;;;;;4.25;83.64;97096.81;4870002;29;20053;-73
2020/12/21 08:01:40;;;;;;;16.17;10.38;;;;;;;4.26;83.66;97095.81;4873746;29;20041;-73
2020/12/21 08:04:14;;;;;;;16.23;10.40;;;;;;;4.27;83.87;97095.66;4874933;29;20057;-73
2020/12/21 08:06:40;;;;;;;17.10;9.35;;;;;;;4.31;83.76;97105.75;4868377;29;20045;-73
2020/12/21 08:09:08;;;;;;;14.85;9.93;;;;;;;4.33;84.05;97112.38;4852384;29;20498;-76
2020/12/21 08:11:36;;;;;;;15.68;9.90;;;;;;;4.34;84.01;97102.81;4858993;29;20037;-75
2020/12/21 08:14:03;;;;;;;16.63;10.00;;;;;;;4.36;84.17;97104.25;4872514;29;20049;-75
2020/12/21 08:16:31;;;;;;;18.42;11.02;;;;;;;4.39;84.23;97103.94;4874183;29;20060;-75
2020/12/21 08:18:57;;;;;;;14.45;10.38;;;;;;;4.42;84.22;97103.59;4879221;29;20394;-75
2020/12/21 08:21:25;;;;;;;17.95;10.98;;;;;;;4.45;84.13;97107.66;4870971;29;20053;-75
2020/12/21 08:23:57;;;;;;;17.58;10.82;;;;;;;4.47;84.16;97111.75;4869009;29;20060;-75
2020/12/21 08:26:26;;;;;;;14.80;10.57;;;;;;;4.53;84.20;97114.66;4874274;29;20045;-75
2020/12/21 08:28:54;;;;;;;15.60;10.80;;;;;;;4.55;84.26;97110.91;4873960;29;20049;-75
2020/12/21 08:31:22;;;;;;;15.57;10.63;;;;;;;4.59;84.23;97119.19;4869557;29;20045;-74
2020/12/21 08:34:08;;;;;;;22.13;11.45;;;;;;;4.61;84.38;97123.25;4863955;29;20041;-75
2020/12/21 08:36:39;;;;;;;17.40;11.30;;;;;;;4.63;84.08;97117.91;4856327;29;20052;-75
2020/12/21 08:39:09;;;;;;;14.63;10.55;;;;;;;4.65;84.17;97124.53;4854814;29;20049;-75
2020/12/21 08:41:48;;;;;;;17.73;10.52;;;;;;;4.67;84.12;97124.38;4871327;29;20064;-74
2020/12/21 08:44:23;;;;;;;17.70;12.15;;;;;;;4.66;83.68;97122.75;4867880;29;20048;-75
2020/12/21 08:46:54;;;;;;;19.98;11.93;;;;;;;4.64;83.69;97125.53;4868795;29;20030;-75
2020/12/21 08:49:25;;;;;;;20.58;12.88;;;;;;;4.61;83.53;97130.22;4869207;29;20037;-76
2020/12/21 08:51:52;;;;;;;24.92;13.30;;;;;;;4.58;83.57;97121.00;4867428;29;20036;-75
2020/12/21 08:54:18;;;;;;;32.72;18.50;;;;;;;4.57;83.74;97129.75;4870311;29;20037;-75
2020/12/21 08:56:48;;;;;;;37.50;21.30;;;;;;;4.58;83.68;97135.78;4872892;29;20044;-75
2020/12/21 08:59:15;;;;;;;26.80;18.17;;;;;;;4.59;83.76;97130.38;4863066;29;20048;-75
2020/12/21 09:01:42;;;;;;;24.90;16.17;;;;;;;4.63;83.64;97131.69;4874666;29;20414;-75
2020/12/21 09:04:09;;;;;;;28.77;17.35;;;;;;;4.68;83.81;97132.03;4865399;29;20120;-75
2020/12/21 09:06:35;;;;;;;22.88;15.30;;;;;;;4.71;83.86;97127.47;4874823;29;20052;-76
2020/12/21 09:09:02;;;;;;;22.52;14.57;;;;;;;4.76;84.32;97127.78;4855370;29;20068;-75
2020/12/21 09:11:28;;;;;;;23.67;14.35;;;;;;;4.82;84.29;97124.53;4870263;29;20037;-75
2020/12/21 09:13:55;;;;;;;19.52;13.15;;;;;;;4.86;84.21;97116.25;4855100;29;20049;-75
2020/12/21 09:16:26;;;;;;;18.67;12.05;;;;;;;4.92;83.99;97119.16;4880344;29;20513;-75
2020/12/21 09:18:54;;;;;;;17.70;12.40;;;;;;;4.96;84.04;97134.25;4864964;29;20426;-75
2020/12/21 09:21:25;;;;;;;21.30;12.75;;;;;;;5.01;84.13;97129.38;4867537;29;20049;-75
2020/12/21 09:23:54;;;;;;;19.85;12.00;;;;;;;5.05;84.10;97135.06;4867312;29;20041;-74
2020/12/21 09:26:21;;;;;;;16.95;11.50;;;;;;;5.08;84.24;97121.72;4875622;29;20044;-75
2020/12/21 09:28:48;;;;;;;15.95;10.93;;;;;;;5.13;83.92;97131.63;4866907;29;20044;-75
2020/12/21 09:31:16;;;;;;;17.80;10.93;;;;;;;5.17;84.04;97122.53;4873783;29;20040;-75
2020/12/21 09:33:42;;;;;;;19.00;10.82;;;;;;;5.22;84.11;97122.81;4861220;29;20040;-75
2020/12/21 09:36:09;;;;;;;15.50;10.38;;;;;;;5.26;84.03;97118.91;4870096;29;20529;-75
2020/12/21 09:38:36;;;;;;;16.20;10.32;;;;;;;5.31;83.61;97114.00;4876192;29;20160;-75
2020/12/21 09:41:04;;;;;;;17.02;9.40;;;;;;;5.34;83.46;97118.88;4848536;29;20052;-75
2020/12/21 09:43:31;;;;;;;14.85;9.60;;;;;;;5.34;83.19;97112.88;4874005;29;20509;-74
2020/12/21 09:45:57;;;;;;;14.43;9.45;;;;;;;5.32;83.20;97107.84;4864888;29;20073;-75
2020/12/21 09:48:24;;;;;;;13.15;8.23;;;;;;;5.35;83.28;97112.69;4865603;29;20052;-76
2020/12/21 09:50:50;;;;;;;14.82;7.93;;;;;;;5.35;83.13;97106.69;4872362;29;20402;-75
2020/12/21 09:53:17;;;;;;;12.82;8.32;;;;;;;5.35;82.93;97114.50;4879234;29;20482;-75
2020/12/21 09:55:43;;;;;;;16.00;9.45;;;;;;;5.38;83.56;97109.78;4865906;29;20041;-75
2020/12/21 09:58:09;;;;;;;14.00;9.73;;;;;;;5.41;83.68;97106.00;4876724;29;21205;-74
2020/12/21 10:00:35;;;;;;;17.33;10.50;;;;;;;5.42;83.37;97107.66;4871521;29;20045;-75
2020/12/21 10:03:02;;;;;;;25.90;16.05;;;;;;;5.37;83.15;97102.13;4872322;29;20045;-75
2020/12/21 10:05:28;;;;;;;17.65;12.05;;;;;;;5.36;83.23;97108.31;4872741;29;20049;-75
2020/12/21 10:07:54;;;;;;;25.23;15.80;;;;;;;5.38;83.45;97112.38;4871793;29;20508;-75
2020/12/21 10:10:20;;;;;;;18.35;12.52;;;;;;;5.41;83.53;97109.41;4867294;29;20049;-74
2020/12/21 10:12:50;;;;;;;24.73;16.52;;;;;;;5.43;83.52;97107.47;4867884;29;20056;-75
2020/12/21 10:15:16;;;;;;;44.67;28.40;;;;;;;5.42;83.20;97102.44;4872755;29;20081;-75
2020/12/21 10:17:42;;;;;;;28.60;17.25;;;;;;;5.38;83.26;97098.56;4874276;29;20045;-72
2020/12/21 10:20:09;;;;;;;38.30;22.42;;;;;;;5.36;83.35;97093.53;4869424;29;20115;-75
2020/12/21 10:22:35;;;;;;;28.42;16.75;;;;;;;5.35;83.53;97088.47;4837035;29;20060;-75
2020/12/21 10:25:01;;;;;;;26.02;13.80;;;;;;;5.33;83.12;97086.03;4876349;29;20040;-76
2020/12/21 10:27:29;;;;;;;18.95;12.95;;;;;;;5.28;83.37;97081.34;4852021;29;20048;-74
2020/12/21 10:29:56;;;;;;;19.45;12.18;;;;;;;5.28;83.42;97080.56;4865898;29;20041;-75
2020/12/21 10:32:22;;;;;;;17.45;10.00;;;;;;;5.29;83.41;97071.75;4867588;29;20052;-75
2020/12/21 10:34:48;;;;;;;14.52;10.18;;;;;;;5.35;83.68;97078.88;4873994;29;20042;-75
2020/12/21 10:37:15;;;;;;;17.00;9.25;;;;;;;5.44;83.76;97074.47;4870745;29;20490;-74
2020/12/21 10:39:42;;;;;;;15.63;9.93;;;;;;;5.48;83.65;97079.16;4867595;29;20514;-75
2020/12/21 10:42:08;;;;;;;14.30;9.70;;;;;;;5.53;83.06;97072.66;4855764;29;20061;-75
2020/12/21 10:44:34;;;;;;;17.70;13.90;;;;;;;5.48;82.84;97067.94;4872765;29;20061;-75
2020/12/21 10:47:01;;;;;;;14.88;10.00;;;;;;;5.43;83.33;97071.03;4868868;29;20053;-75
2020/12/21 10:49:27;;;;;;;17.67;12.07;;;;;;;5.41;82.77;97057.41;4854730;29;20061;-74
2020/12/21 10:51:53;;;;;;;15.23;10.68;;;;;;;5.35;82.94;97052.88;4870095;29;20061;-75
2020/12/21 10:54:20;;;;;;;18.77;12.23;;;;;;;5.30;83.12;97039.59;4872279;29;20391;-75
2020/12/21 10:56:51;;;;;;;20.00;13.38;;;;;;;5.32;83.55;97039.41;4873727;29;20068;-75
2020/12/21 10:59:17;;;;;;;26.00;15.65;;;;;;;5.36;83.40;97044.09;4853154;29;20485;-75
2020/12/21 11:01:47;;;;;;;17.20;10.93;;;;;;;5.40;83.16;97052.38;4869953;29;20386;-76
2020/12/21 11:04:14;;;;;;;27.00;16.65;;;;;;;5.44;83.44;97046.66;4873391;29;20052;-75
2020/12/21 11:06:40;;;;;;;19.30;12.88;;;;;;;5.46;83.11;97036.09;4868306;29;20045;-74
2020/12/21 11:09:06;;;;;;;29.60;18.08;;;;;;;5.51;83.19;97044.19;4869803;29;20068;-74
2020/12/21 11:11:32;;;;;;;35.42;23.10;;;;;;;5.54;83.19;97043.84;4868467;29;20052;-74
2020/12/21 11:14:03;;;;;;;21.23;13.30;;;;;;;5.60;83.43;97027.53;4872561;29;20049;-72
2020/12/21 11:16:30;;;;;;;13.65;9.65;;;;;;;5.67;83.31;97038.91;4872811;29;20045;-73
2020/12/21 11:18:57;;;;;;;13.68;9.68;;;;;;;5.70;83.08;97061.97;4867578;29;20036;-73
2020/12/21 11:21:24;;;;;;;14.48;9.43;;;;;;;5.74;82.90;97057.22;4869032;29;20045;-75
2020/12/21 11:23:50;;;;;;;16.17;9.52;;;;;;;5.75;82.77;97056.22;4868034;29;20033;-75
2020/12/21 11:26:18;;;;;;;14.95;9.63;;;;;;;5.73;82.49;97047.78;4871673;29;20057;-75
2020/12/21 11:28:44;;;;;;;13.00;9.55;;;;;;;5.70;82.66;97046.34;4864049;29;20056;-75
2020/12/21 11:31:17;;;;;;;17.45;10.07;;;;;;;5.71;82.67;97039.34;4869057;29;20474;-72
2020/12/21 11:33:44;;;;;;;19.10;9.85;;;;;;;5.69;82.78;97034.34;4871090;29;20049;-72
2020/12/21 11:36:11;;;;;;;15.25;10.15;;;;;;;5.75;82.99;97045.03;4871656;29;20033;-73
2020/12/21 11:38:38;;;;;;;16.10;10.60;;;;;;;5.73;82.38;97039.97;4871289;29;20329;-72